首页
METAR-TAF:

METAR-TAF

机场 :

錫達拉皮茲, 艾奥瓦州, 美国

纬度: 41-53-04N, 经度: 091-42-38W, 海拔: 263米

当前天气观测

该预报发布于19分钟前的14:55 UTC
风速5节,风向南转西南
温度 19°C
湿度 94%
气压 1012 hPa
能見度: 6.4公里
散云层高于600英尺
阴天层高于1000英尺
雨, 轻雾

METAR: KCID 221455Z 21005KT 4SM RA BR SCT006 OVC010 19/18 A2989 RMK AO2 P0000 T01890183

时间: 10:14 (15:14 UTC)

预报

该预报发布于47分钟前的14:27 UTC
预报有效从22日的 14点(UTC)到 23日的 12点(UTC)
风速4节,风向西转西北
能見度: 9.7公里
多云层高于1200英尺
阴天层高于10000英尺
小雨
从 22日的 2100点(UTC)
风速9节,风向西北
能見度: 9.7公里
阴天层高于2500英尺
小阵雨
从 23日的 0000点(UTC)
风速8节,风向西北
能見度: 10公里
阴天层高于2000英尺
从 23日的 0600点(UTC)
风速12节,风向西北
能見度: 10公里
散云层高于2500英尺
多云层高于10000英尺

TAF: KCID 221427Z 2214/2312 29004KT 6SM -RA BKN012 OVC100 FM222100 31009KT 6SM -SHRA OVC025 FM230000 32008KT P6SM OVC020 FM230600 31012KT P6SM SCT025 BKN100

超过4000个机场的气象观测和天气预报(METAR&TAF报告)。

可查询的气象台以黄色和红色小点在地图上表示。

将鼠标移到小点上方,可查看气象台名称。

然后点击查看天气观测和预报。

如需切换地图:点击带黑十字的绿色按钮放大地图;点击带横线的绿色按钮缩小地图;或者点击绿色箭头查看邻近地区的地图。


METAR-TAF: